Waterloo Regional Airport
KALO : now visible

Airfield :











YOU CAN JOIN US ON...

 
LOGIN :

Register | Disclaimer

   EN    FR    IT 

 









Legend :    VFR   Marginal VFR   IFR   Intensive IFR   Very Intensive IFR
Visi :
Ceiling :
>= 8 km
>= 3000ft
5 to 8 km
1000 to 3000 ft
1500m to 5 km
500 to 1000 ft
800 to 1500m
200 to 500 ft
< 800m
< 200 ft
Symbols :   Thunderstorms  Fog  Heavy snow  Heavy precipitations  Wind > 20 kt






- Airport Elevation : 873 ft
- IATA code : ALO


KALO - Waterloo Regional

CURRENT METAR :
  • 281754Z 09019G29KT 10SM OVC006 11/09 A2953 RMK AO2 PK WND 08029/1752 RAB04E53 SLP002 P0004 60004 T01060089 10106 20072 58047

EXPIRED METARs :
  • 281703Z 08012KT 9SM OVC005 08/07 A2962 RMK AO2 T00830067
  • 281623Z 11013G20KT 3SM BR OVC004 08/07 A2964 RMK AO2 RAB00E19 P0000 T00830067
  • 281601Z 11009KT 3SM -RA BR OVC005 08/07 A2966 RMK AO2 LTG DSNT SE RAB00 P0000 T00830067
  • 281549Z 14008KT 2SM BR OVC005 08/07 A2967 RMK AO2 LTG DSNT SE AND S

TAF KALO
Valid from the 28 at 18:00 until the 29 at 18:00 UTC


281724Z 2818/2918 08012G20KT 5SM -SHRA BR OVC005
FM282100 14017G25KT 4SM TSRA OVC010CB WS020/16040KT
TEMPO 2821/2822 1SM +TSRA OVC005CB
FM282200 15014G22KT 5SM RA OVC015 WS020/17040KT
TEMPO 2822/2823 1SM +TSRA OVC009CB
FM290000 18014KT P6SM BKN035
FM290500 20013KT P6SM VCSH OVC015
FM290900 27018G28KT 6SM -RA OVC008



MET'MAP, your aeronautical weather chart ! - Copyright ORBIFLY December 2007 - Disclaimer

ORBIFLY MET'MAP TEAM :

Programming & Development : Alexandra Zaïnal
Concept & original design : Baudouin d'Aumeries
Assistance for programming : Marc-Olivier Méhu
Technical & hardware support : Manuel Goepfert

Contact : metmap@orbifly.com




SOURCES & CREDITS :

   NOAA       Earth
Advisory